createdAt,value
2019-01-03T00:01:36.932Z,1.00
2019-01-03T00:04:24.012Z,0.90
2019-01-03T00:07:25.038Z,0.87
2019-01-03T00:10:12.172Z,0.93
2019-01-03T00:12:59.053Z,0.60
2019-01-03T00:15:47.262Z,0.70
2019-01-03T00:18:34.285Z,0.80
2019-01-03T00:21:23.685Z,1.10
2019-01-03T00:24:30.342Z,0.90
2019-01-03T00:27:37.068Z,1.00
2019-01-03T00:30:25.690Z,0.60
2019-01-03T00:33:14.656Z,0.67
2019-01-03T00:36:03.762Z,0.80
2019-01-03T00:38:51.974Z,0.83
2019-01-03T00:41:36.825Z,0.70
2019-01-03T00:44:20.947Z,0.80
2019-01-03T00:47:19.560Z,0.80
2019-01-03T00:50:23.103Z,1.13
2019-01-03T00:53:11.309Z,0.80
2019-01-03T00:56:09.521Z,0.77
2019-01-03T00:58:57.976Z,0.80
2019-01-03T01:01:48.028Z,0.70
2019-01-03T01:04:42.043Z,0.80
2019-01-03T01:07:34.280Z,0.80
2019-01-03T01:10:22.761Z,0.80
2019-01-03T01:13:23.375Z,0.70
2019-01-03T01:16:21.578Z,1.00
2019-01-03T01:19:16.275Z,0.63
2019-01-03T01:22:03.418Z,0.80
2019-01-03T01:25:07.599Z,0.73
2019-01-03T01:27:46.606Z,0.60
2019-01-03T01:30:44.052Z,0.73
2019-01-03T01:33:50.553Z,0.83
2019-01-03T01:36:41.491Z,0.80
2019-01-03T01:39:32.716Z,0.90
2019-01-03T01:42:20.955Z,0.70
2019-01-03T01:45:07.943Z,0.70
2019-01-03T01:47:55.188Z,0.70
2019-01-03T01:50:43.400Z,0.90
2019-01-03T01:53:30.383Z,0.90
2019-01-03T01:56:17.581Z,0.70
2019-01-03T01:59:01.923Z,0.63
2019-01-03T02:01:59.283Z,0.70
2019-01-03T02:04:43.787Z,0.50
2019-01-03T02:07:43.873Z,0.80
2019-01-03T02:10:35.142Z,0.70
2019-01-03T02:13:24.239Z,0.70
2019-01-03T02:16:21.252Z,0.70
2019-01-03T02:19:08.355Z,0.50
2019-01-03T02:21:51.529Z,0.60
2019-01-03T02:24:51.858Z,0.63
2019-01-03T02:27:39.020Z,0.60
2019-01-03T02:30:33.046Z,0.73
2019-01-03T02:33:20.013Z,0.63
2019-01-03T02:36:22.850Z,0.57
2019-01-03T02:39:29.576Z,0.80
2019-01-03T02:42:20.280Z,0.63
2019-01-03T02:45:08.517Z,0.40
2019-01-03T02:47:47.681Z,0.67
2019-01-03T02:50:35.895Z,0.80
2019-01-03T02:53:23.089Z,0.80
2019-01-03T02:56:14.413Z,0.60
2019-01-03T02:59:02.606Z,0.67
2019-01-03T03:01:49.824Z,0.80
2019-01-03T03:04:47.105Z,0.93
2019-01-03T03:07:26.550Z,0.50
2019-01-03T03:10:25.986Z,0.60
2019-01-03T03:13:13.219Z,0.60
2019-01-03T03:16:04.310Z,0.70
2019-01-03T03:18:43.854Z,0.80
2019-01-03T03:21:40.985Z,0.70
2019-01-03T03:24:32.018Z,0.60
2019-01-03T03:27:18.899Z,1.27
2019-01-03T03:30:05.847Z,0.57
2019-01-03T03:32:54.041Z,0.70
2019-01-03T03:35:54.392Z,0.60
2019-01-03T03:38:45.372Z,0.50
2019-01-03T03:41:48.764Z,0.70
2019-01-03T03:44:28.998Z,0.60
2019-01-03T03:47:27.259Z,0.60
2019-01-03T03:50:14.288Z,0.83
2019-01-03T03:53:11.587Z,0.70
2019-01-03T03:55:58.391Z,0.77
2019-01-03T03:58:46.603Z,0.63
2019-01-03T04:01:46.739Z,0.90
2019-01-03T04:04:35.677Z,0.70
2019-01-03T04:07:35.934Z,0.60
2019-01-03T04:10:43.345Z,0.63
2019-01-03T04:13:31.549Z,0.70
2019-01-03T04:16:19.348Z,0.50
2019-01-03T04:19:17.212Z,0.60
2019-01-03T04:22:14.615Z,0.90
2019-01-03T04:25:01.458Z,0.67
2019-01-03T04:27:55.686Z,0.60
2019-01-03T04:30:51.275Z,0.70
2019-01-03T04:33:39.512Z,0.70
2019-01-03T04:36:26.495Z,0.60
2019-01-03T04:39:14.742Z,0.70
2019-01-03T04:42:18.310Z,0.80
2019-01-03T04:45:12.376Z,0.80
2019-01-03T04:48:09.452Z,1.33
2019-01-03T04:51:03.797Z,0.60
2019-01-03T04:53:50.993Z,0.60
2019-01-03T04:56:51.567Z,0.60
2019-01-03T04:59:39.362Z,0.70
2019-01-03T05:02:42.762Z,0.67
2019-01-03T05:05:23.830Z,0.70
2019-01-03T05:08:12.850Z,0.70
2019-01-03T05:11:00.190Z,0.63
2019-01-03T05:14:06.611Z,0.67
2019-01-03T05:16:53.495Z,0.63
2019-01-03T05:19:39.499Z,1.00
2019-01-03T05:22:34.121Z,0.80
2019-01-03T05:25:28.551Z,0.80
2019-01-03T05:28:25.852Z,0.80
2019-01-03T05:31:16.941Z,0.80
2019-01-03T05:34:14.314Z,0.90
2019-01-03T05:36:51.870Z,0.63
2019-01-03T05:39:45.626Z,0.50
2019-01-03T05:42:32.421Z,0.60
2019-01-03T05:45:26.943Z,1.00
2019-01-03T05:48:18.308Z,0.70
2019-01-03T05:51:05.758Z,0.53
2019-01-03T05:53:53.269Z,0.67
2019-01-03T05:56:51.853Z,0.70
2019-01-03T05:59:39.307Z,1.10
2019-01-03T06:02:45.055Z,0.80
2019-01-03T06:05:34.760Z,0.90
2019-01-03T06:08:35.531Z,0.60
2019-01-03T06:11:23.951Z,0.60
2019-01-03T06:14:15.231Z,0.70
2019-01-03T06:17:02.300Z,1.13
2019-01-03T06:20:09.546Z,0.80
2019-01-03T06:22:56.689Z,0.80
2019-01-03T06:25:43.935Z,0.70
2019-01-03T06:28:32.120Z,0.70
2019-01-03T06:31:26.300Z,0.80
2019-01-03T06:34:23.338Z,0.90
2019-01-03T06:37:10.543Z,0.70
2019-01-03T06:39:59.097Z,0.90
2019-01-03T06:42:53.217Z,0.77
2019-01-03T06:45:40.395Z,0.70
2019-01-03T06:48:40.698Z,0.70
2019-01-03T06:51:29.230Z,1.00
2019-01-03T06:54:21.038Z,0.70
2019-01-03T06:57:21.099Z,0.90
2019-01-03T07:00:13.425Z,0.70
2019-01-03T07:03:04.718Z,0.90
2019-01-03T07:05:51.903Z,0.93
2019-01-03T07:08:45.636Z,0.80
2019-01-03T07:11:46.046Z,0.93
2019-01-03T07:14:33.064Z,1.17
2019-01-03T07:17:36.618Z,0.90
2019-01-03T07:20:29.479Z,0.80
2019-01-03T07:23:17.641Z,0.70
2019-01-03T07:26:04.839Z,0.70
2019-01-03T07:29:08.442Z,0.83
2019-01-03T07:31:55.417Z,1.00
2019-01-03T07:34:42.352Z,1.10
2019-01-03T07:37:33.332Z,0.90
2019-01-03T07:40:30.718Z,1.00
2019-01-03T07:43:36.958Z,1.40
2019-01-03T07:46:26.825Z,1.60
2019-01-03T07:49:13.930Z,1.23
2019-01-03T07:52:02.225Z,1.00
2019-01-03T07:55:02.582Z,1.10
2019-01-03T07:58:09.510Z,1.13
2019-01-03T08:01:16.175Z,1.27
2019-01-03T08:04:04.428Z,1.10
2019-01-03T08:06:51.523Z,1.13
2019-01-03T08:09:57.917Z,1.20
2019-01-03T08:12:44.646Z,1.00
2019-01-03T08:15:38.475Z,1.73
2019-01-03T08:18:31.974Z,1.27
2019-01-03T08:21:23.458Z,1.00
2019-01-03T08:24:07.927Z,1.07
2019-01-03T08:26:49.753Z,1.13
2019-01-03T08:29:37.739Z,1.50
2019-01-03T08:32:44.586Z,1.43
2019-01-03T08:35:32.803Z,1.20
2019-01-03T08:38:27.176Z,1.10
2019-01-03T08:41:30.748Z,1.10
2019-01-03T08:44:24.964Z,1.50
2019-01-03T08:47:13.083Z,1.50
2019-01-03T08:50:01.313Z,1.60
2019-01-03T08:53:04.893Z,1.80
2019-01-03T08:56:00.202Z,1.53
2019-01-03T08:58:47.315Z,1.10
2019-01-03T09:01:41.459Z,1.10
2019-01-03T09:04:27.941Z,1.40
2019-01-03T09:07:15.321Z,1.20
2019-01-03T09:10:02.199Z,1.00
2019-01-03T09:12:47.304Z,1.30
2019-01-03T09:15:34.606Z,1.53
2019-01-03T09:18:21.437Z,1.20
2019-01-03T09:21:09.760Z,1.57
2019-01-03T09:24:07.228Z,1.20
2019-01-03T09:27:01.983Z,1.90
2019-01-03T09:30:00.465Z,1.43
2019-01-03T09:32:47.718Z,1.73
2019-01-03T09:35:48.287Z,1.67
2019-01-03T09:38:39.644Z,1.30
2019-01-03T09:41:27.887Z,1.47
2019-01-03T09:44:09.453Z,1.27
2019-01-03T09:46:39.075Z,0.93
2019-01-03T09:49:08.902Z,1.73
2019-01-03T09:51:38.255Z,1.20
2019-01-03T09:54:08.684Z,10.47
2019-01-03T09:56:37.976Z,1.83
2019-01-03T09:59:07.241Z,1.63
2019-01-03T10:01:36.531Z,1.27
2019-01-03T10:04:05.800Z,1.30
2019-01-03T10:06:35.055Z,1.57
2019-01-03T10:09:06.182Z,1.33
2019-01-03T10:11:35.430Z,1.23
2019-01-03T10:14:04.698Z,1.27
2019-01-03T10:16:33.973Z,1.40
2019-01-03T10:19:03.283Z,1.33
2019-01-03T10:21:32.538Z,1.20
2019-01-03T10:24:01.795Z,1.57
2019-01-03T10:26:31.046Z,1.27
2019-01-03T10:29:00.308Z,1.57
2019-01-03T10:31:30.697Z,1.23
2019-01-03T10:33:59.950Z,1.60
2019-01-03T10:36:30.325Z,1.50
2019-01-03T10:38:59.576Z,1.83
2019-01-03T10:41:28.828Z,1.90
2019-01-03T10:43:58.104Z,1.90
2019-01-03T10:46:27.363Z,1.50
2019-01-03T10:48:56.665Z,1.47
2019-01-03T10:51:26.026Z,1.50
2019-01-03T10:53:55.432Z,1.40
2019-01-03T10:56:24.709Z,1.33
2019-01-03T10:58:53.957Z,1.50
2019-01-03T11:01:23.257Z,1.50
2019-01-03T11:03:52.505Z,1.00
2019-01-03T11:06:21.795Z,0.90
2019-01-03T11:08:51.069Z,1.17
2019-01-03T11:11:20.663Z,0.90
2019-01-03T11:13:51.508Z,0.73
2019-01-03T11:16:21.111Z,0.80
2019-01-03T11:18:50.371Z,0.70
2019-01-03T11:21:19.653Z,1.00
2019-01-03T11:23:48.927Z,0.80
2019-01-03T11:26:18.185Z,1.00
2019-01-03T11:28:47.505Z,1.10
2019-01-03T11:31:16.828Z,0.93
2019-01-03T11:33:46.055Z,0.90
2019-01-03T11:36:15.319Z,1.00
2019-01-03T11:38:44.567Z,1.03
2019-01-03T11:41:13.836Z,1.00
2019-01-03T11:43:43.116Z,0.87
2019-01-03T11:46:12.417Z,0.90
2019-01-03T11:48:41.684Z,0.90
2019-01-03T11:51:10.964Z,0.90
2019-01-03T11:53:40.238Z,1.20
2019-01-03T11:56:09.525Z,1.13
2019-01-03T11:58:38.798Z,1.17
2019-01-03T12:01:09.234Z,0.93
2019-01-03T12:03:38.533Z,1.00
2019-01-03T12:06:07.792Z,1.07
2019-01-03T12:08:37.063Z,0.80
2019-01-03T12:11:06.349Z,0.90
2019-01-03T12:13:35.635Z,0.90
2019-01-03T12:16:04.885Z,0.90
2019-01-03T12:18:34.191Z,0.80
2019-01-03T12:21:03.499Z,0.90
2019-01-03T12:23:32.731Z,1.10
2019-01-03T12:26:02.022Z,1.20
2019-01-03T12:28:32.761Z,0.93
2019-01-03T12:31:02.082Z,1.67
2019-01-03T12:33:31.347Z,1.00
2019-01-03T12:36:00.622Z,1.17
2019-01-03T12:38:29.893Z,0.90
2019-01-03T12:40:59.398Z,1.40
2019-01-03T12:43:28.726Z,1.53
2019-01-03T12:45:58.006Z,1.20
2019-01-03T12:48:28.512Z,1.10
2019-01-03T12:50:58.024Z,1.37
2019-01-03T12:53:28.431Z,1.20
2019-01-03T12:55:58.856Z,1.70
2019-01-03T12:58:28.347Z,1.53
2019-01-03T13:00:58.893Z,1.90
2019-01-03T13:03:29.189Z,1.60
2019-01-03T13:05:58.489Z,1.83
2019-01-03T13:08:27.752Z,1.60
2019-01-03T13:10:57.049Z,1.33
2019-01-03T13:13:26.322Z,1.77
2019-01-03T13:15:55.581Z,1.47
2019-01-03T13:18:24.844Z,1.67
2019-01-03T13:20:54.125Z,1.80
2019-01-03T13:23:23.403Z,1.77
2019-01-03T13:25:54.177Z,2.03
2019-01-03T13:28:25.788Z,1.43
2019-01-03T13:30:55.070Z,1.67
2019-01-03T13:33:24.405Z,1.20
2019-01-03T13:35:53.667Z,1.80
2019-01-03T13:38:22.965Z,1.77
2019-01-03T13:40:52.266Z,1.70
2019-01-03T13:43:21.527Z,1.90
2019-01-03T13:45:50.857Z,2.23
2019-01-03T13:48:20.110Z,1.37
2019-01-03T13:50:49.388Z,1.97
2019-01-03T13:53:18.645Z,1.77
2019-01-03T13:55:47.966Z,1.50
2019-01-03T13:58:17.187Z,1.80
2019-01-03T14:00:46.488Z,1.77
2019-01-03T14:03:17.556Z,1.63
2019-01-03T14:05:46.831Z,2.07
2019-01-03T14:08:16.121Z,2.33
2019-01-03T14:10:45.393Z,2.80
2019-01-03T14:13:14.791Z,2.40
2019-01-03T14:15:44.209Z,2.20
2019-01-03T14:18:13.701Z,2.53
2019-01-03T14:20:42.945Z,2.73
2019-01-03T14:23:12.212Z,3.00
2019-01-03T14:25:41.518Z,2.50
2019-01-03T14:28:10.772Z,3.20
2019-01-03T14:30:40.045Z,3.20
2019-01-03T14:33:09.293Z,2.67
2019-01-03T14:35:38.563Z,3.40
2019-01-03T14:38:07.830Z,3.10
2019-01-03T14:40:38.224Z,3.57
2019-01-03T14:43:07.486Z,3.00
2019-01-03T14:45:36.749Z,2.77
2019-01-03T14:48:06.037Z,3.30
2019-01-03T14:50:35.396Z,3.67
2019-01-03T14:53:04.699Z,3.50
2019-01-03T14:55:33.960Z,3.47
2019-01-03T14:58:04.345Z,4.00
2019-01-03T15:00:33.727Z,3.33
2019-01-03T15:03:03.004Z,3.67
2019-01-03T15:05:32.542Z,3.90
2019-01-03T15:08:01.845Z,3.67
2019-01-03T15:10:31.183Z,4.57
2019-01-03T15:13:00.486Z,3.93
2019-01-03T15:15:29.817Z,4.10
2019-01-03T15:17:59.064Z,4.80
2019-01-03T15:20:28.390Z,4.67
2019-01-03T15:22:57.692Z,5.07
2019-01-03T15:25:26.999Z,4.87
2019-01-03T15:27:56.276Z,5.03
2019-01-03T15:30:25.530Z,5.00
2019-01-03T15:32:54.814Z,5.03
2019-01-03T15:35:24.084Z,5.83
2019-01-03T15:37:53.393Z,5.30
2019-01-03T15:40:24.471Z,5.17
2019-01-03T15:42:53.738Z,6.00
2019-01-03T15:45:23.012Z,5.50
2019-01-03T15:47:52.284Z,4.87
2019-01-03T15:50:21.562Z,4.70
2019-01-03T15:52:50.832Z,5.47
2019-01-03T15:55:20.083Z,5.03
2019-01-03T15:57:49.465Z,6.13
2019-01-03T16:00:19.013Z,6.00
2019-01-03T16:02:48.593Z,6.17
2019-01-03T16:05:17.939Z,9.67
2019-01-03T16:07:47.223Z,6.47
2019-01-03T16:10:16.625Z,7.47
2019-01-03T16:12:45.906Z,7.60
2019-01-03T16:15:15.221Z,7.73
2019-01-03T16:17:44.510Z,8.37
2019-01-03T16:20:13.782Z,7.30
2019-01-03T16:22:43.077Z,8.73
2019-01-03T16:25:12.380Z,7.10
2019-01-03T16:27:41.685Z,7.37
2019-01-03T16:30:11.495Z,8.77
2019-01-03T16:32:40.937Z,9.00
2019-01-03T16:35:10.236Z,8.70
2019-01-03T16:37:40.519Z,8.60
2019-01-03T16:40:11.043Z,10.67
2019-01-03T16:42:46.339Z,9.53
2019-01-03T16:45:16.824Z,8.93
2019-01-03T16:47:46.852Z,8.97
2019-01-03T16:50:18.513Z,9.47
2019-01-03T16:52:48.528Z,9.10
2019-01-03T16:55:18.977Z,8.60
2019-01-03T16:57:48.537Z,9.93
2019-01-03T17:00:18.163Z,8.93
2019-01-03T17:02:47.690Z,9.17
2019-01-03T17:05:17.036Z,9.70
2019-01-03T17:07:49.060Z,9.83
2019-01-03T17:10:19.377Z,10.50
2019-01-03T17:12:48.683Z,10.80
2019-01-03T17:15:18.212Z,9.67
2019-01-03T17:17:48.712Z,9.50
2019-01-03T17:20:18.018Z,9.20
2019-01-03T17:22:47.283Z,10.30
2019-01-03T17:25:16.575Z,10.33
2019-01-03T17:27:45.841Z,9.90
2019-01-03T17:30:15.214Z,9.57
2019-01-03T17:32:44.953Z,10.17
2019-01-03T17:35:14.467Z,9.23
2019-01-03T17:37:43.757Z,9.53
2019-01-03T17:40:14.363Z,9.73
2019-01-03T17:42:45.772Z,9.93
2019-01-03T17:45:15.144Z,9.47
2019-01-03T17:47:46.221Z,8.97
2019-01-03T17:50:18.563Z,8.80
2019-01-03T17:52:47.857Z,9.07
2019-01-03T17:55:17.696Z,7.87
2019-01-03T17:57:48.724Z,8.30
2019-01-03T18:00:21.495Z,9.67
2019-01-03T18:02:51.440Z,8.97
2019-01-03T18:05:20.719Z,9.93
2019-01-03T18:07:50.061Z,8.73
2019-01-03T18:10:19.353Z,9.37
2019-01-03T18:12:48.983Z,11.20
2019-01-03T18:15:18.242Z,8.40
2019-01-03T18:17:47.554Z,8.07
2019-01-03T18:20:18.139Z,8.80
2019-01-03T18:22:48.035Z,8.80
2019-01-03T18:25:19.521Z,9.77
2019-01-03T18:27:49.176Z,10.13
2019-01-03T18:30:18.517Z,8.90
2019-01-03T18:32:48.379Z,8.90
2019-01-03T18:35:17.726Z,8.90
2019-01-03T18:37:46.990Z,8.43
2019-01-03T18:40:17.257Z,8.67
2019-01-03T18:42:47.489Z,8.67
2019-01-03T18:45:22.643Z,7.93
2019-01-03T18:47:52.172Z,8.63
2019-01-03T18:50:21.498Z,8.50
2019-01-03T18:52:51.390Z,8.23
2019-01-03T18:55:20.721Z,8.33
2019-01-03T18:57:50.162Z,8.87
2019-01-03T19:00:19.894Z,8.97
2019-01-03T19:02:49.170Z,8.30
2019-01-03T19:05:18.761Z,8.20
2019-01-03T19:07:49.830Z,8.30
2019-01-03T19:10:19.315Z,8.67
2019-01-03T19:12:48.594Z,8.37
2019-01-03T19:15:18.149Z,12.37
2019-01-03T19:17:47.669Z,7.47
2019-01-03T19:20:17.222Z,8.03
2019-01-03T19:22:46.822Z,8.57
2019-01-03T19:25:18.329Z,9.00
2019-01-03T19:27:47.942Z,8.93
2019-01-03T19:30:17.356Z,8.73
2019-01-03T19:32:47.410Z,8.87
2019-01-03T19:35:35.749Z,8.47
2019-01-03T19:38:05.134Z,8.60
2019-01-03T19:40:34.657Z,8.40
2019-01-03T19:43:04.348Z,7.47
2019-01-03T19:45:33.777Z,8.40
2019-01-03T19:48:04.234Z,8.33
2019-01-03T19:50:34.667Z,8.97
2019-01-03T19:53:04.067Z,7.93
2019-01-03T19:55:33.367Z,8.10
2019-01-03T19:58:02.688Z,9.27
2019-01-03T20:00:32.060Z,8.80
2019-01-03T20:03:01.363Z,19.10
2019-01-03T20:05:30.641Z,8.03
2019-01-03T20:07:59.900Z,10.70
2019-01-03T20:10:33.841Z,9.97
2019-01-03T20:13:03.206Z,12.97
2019-01-03T20:15:32.490Z,8.97
2019-01-03T20:18:02.360Z,11.03
2019-01-03T20:20:31.649Z,8.13
2019-01-03T20:23:00.947Z,9.97
2019-01-03T20:25:30.211Z,9.00
2019-01-03T20:27:59.573Z,8.97
2019-01-03T20:30:28.853Z,7.40
2019-01-03T20:32:58.154Z,8.37
2019-01-03T20:35:27.450Z,7.80
2019-01-03T20:37:56.711Z,9.10
2019-01-03T20:40:26.039Z,8.63
2019-01-03T20:42:57.540Z,7.37
2019-01-03T20:45:27.069Z,6.87
2019-01-03T20:47:56.334Z,7.20
2019-01-03T20:50:25.708Z,8.33
2019-01-03T20:52:56.095Z,7.83
2019-01-03T20:55:25.702Z,8.20
2019-01-03T20:57:54.975Z,7.60
2019-01-03T21:00:24.279Z,7.37
2019-01-03T21:02:53.624Z,7.43
2019-01-03T21:05:23.062Z,9.00
2019-01-03T21:07:52.339Z,8.10
2019-01-03T21:10:23.206Z,7.50
2019-01-03T21:12:52.511Z,7.67
2019-01-03T21:15:21.866Z,7.10
2019-01-03T21:17:51.230Z,7.97
2019-01-03T21:20:21.867Z,7.80
2019-01-03T21:22:51.146Z,8.33
2019-01-03T21:25:20.691Z,7.63
2019-01-03T21:27:49.959Z,7.60
2019-01-03T21:30:20.727Z,7.90
2019-01-03T21:32:49.988Z,7.90
2019-01-03T21:35:19.287Z,7.63
2019-01-03T21:37:48.583Z,7.70
2019-01-03T21:40:20.428Z,7.73
2019-01-03T21:42:49.994Z,6.97
2019-01-03T21:45:19.341Z,6.97
2019-01-03T21:47:48.685Z,6.77
2019-01-03T21:50:18.070Z,6.83
2019-01-03T21:52:47.346Z,7.40
2019-01-03T21:55:16.664Z,6.90
2019-01-03T21:57:45.929Z,7.33
2019-01-03T22:00:15.878Z,7.40
2019-01-03T22:02:45.178Z,6.77
2019-01-03T22:05:14.474Z,7.00
2019-01-03T22:07:43.841Z,7.30
2019-01-03T22:10:13.122Z,7.10
2019-01-03T22:12:44.634Z,7.67
2019-01-03T22:15:13.971Z,6.90
2019-01-03T22:17:43.466Z,7.57
2019-01-03T22:20:12.728Z,7.27
2019-01-03T22:22:42.493Z,6.77
2019-01-03T22:25:12.330Z,7.17
2019-01-03T22:27:42.206Z,5.97
2019-01-03T22:30:12.725Z,6.57
2019-01-03T22:32:42.589Z,7.90
2019-01-03T22:35:12.296Z,7.50
2019-01-03T22:37:44.135Z,8.00
2019-01-03T22:40:13.772Z,7.40
2019-01-03T22:42:43.047Z,8.47
2019-01-03T22:45:14.093Z,8.07
2019-01-03T22:47:43.731Z,7.67
2019-01-03T22:50:15.147Z,6.97
2019-01-03T22:52:44.453Z,7.87
2019-01-03T22:55:14.155Z,8.10
2019-01-03T22:57:43.913Z,7.27
2019-01-03T23:00:27.155Z,7.30
2019-01-03T23:02:57.450Z,6.77
2019-01-03T23:05:26.756Z,7.37
2019-01-03T23:07:56.846Z,7.97
2019-01-03T23:10:37.345Z,8.33
2019-01-03T23:13:06.891Z,8.20
2019-01-03T23:15:37.008Z,8.80
2019-01-03T23:18:09.871Z,8.27
2019-01-03T23:20:39.150Z,9.00
2019-01-03T23:23:09.026Z,8.83
2019-01-03T23:25:38.487Z,8.93
2019-01-03T23:28:08.094Z,8.83
2019-01-03T23:30:37.342Z,9.10
2019-01-03T23:33:06.843Z,8.83
2019-01-03T23:35:36.116Z,8.17
2019-01-03T23:38:05.390Z,8.57
2019-01-03T23:40:34.672Z,7.60
2019-01-03T23:43:03.942Z,8.47
2019-01-03T23:45:33.534Z,8.47
2019-01-03T23:48:03.285Z,7.87
2019-01-03T23:50:37.024Z,7.97
2019-01-03T23:53:06.658Z,8.50
2019-01-03T23:55:41.216Z,8.13
2019-01-03T23:58:10.484Z,8.60
